Time;durP1;ratioP1;P1;durP2;ratioP2;P2;SDS_P1;SDS_P2;PMS_P1;PMS_P2;Temp;Humidity;BMP_temperature;BMP_pressure;BME280_temperature;BME280_humidity;BME280_pressure;Samples;Min_cycle;Max_cycle;Signal;HPM_P1;HPM_P2
2022/07/11 00:02:30;;;;;;;8.77;3.07;;;;;;;16.22;91.24;100484.66;5023079;28;20300;-60
2022/07/11 00:05:01;;;;;;;5.57;3.00;;;;;;;16.24;91.09;100480.19;5019910;28;20307;-59
2022/07/11 00:07:32;;;;;;;4.13;2.77;;;;;;;16.39;90.67;100479.63;5019803;28;20277;-59
2022/07/11 00:10:03;;;;;;;8.23;3.97;;;;;;;16.48;90.47;100493.41;5019633;28;20288;-59
2022/07/11 00:12:35;;;;;;;5.43;2.93;;;;;;;16.66;90.38;100476.03;5028665;28;20517;-60
2022/07/11 00:15:06;;;;;;;7.10;2.87;;;;;;;16.85;90.09;100481.47;5039438;28;20592;-59
2022/07/11 00:17:37;;;;;;;14.77;3.30;;;;;;;16.90;88.99;100485.69;5039385;28;20308;-59
2022/07/11 00:20:08;;;;;;;5.97;2.97;;;;;;;16.92;88.54;100480.31;5039169;28;20339;-59
2022/07/11 00:22:39;;;;;;;5.77;2.63;;;;;;;16.89;88.41;100472.53;5029937;28;20596;-59
2022/07/11 00:25:10;;;;;;;19.87;3.00;;;;;;;16.88;88.60;100476.97;5029916;28;20334;-59
2022/07/11 00:27:43;;;;;;;5.57;3.23;;;;;;;16.84;88.32;100482.41;5039412;28;20343;-60
2022/07/11 00:30:19;;;;;;;7.00;3.23;;;;;;;16.71;88.39;100490.75;5027362;28;20589;-59
2022/07/11 00:32:50;;;;;;;3.90;2.60;;;;;;;16.73;89.09;100494.22;5030351;28;20663;-60
2022/07/11 00:35:21;;;;;;;5.30;2.80;;;;;;;16.80;89.12;100501.00;5037569;28;20334;-59
2022/07/11 00:37:51;;;;;;;9.67;3.17;;;;;;;16.83;88.79;100504.44;5019327;28;20349;-59
2022/07/11 00:40:22;;;;;;;5.33;2.67;;;;;;;16.79;88.24;100504.53;5019549;28;20433;-59
2022/07/11 00:42:54;;;;;;;7.77;2.93;;;;;;;16.85;88.65;100500.84;5019142;28;20315;-59
2022/07/11 00:45:25;;;;;;;5.73;2.80;;;;;;;16.84;87.93;100495.59;5022648;28;20295;-59
2022/07/11 00:47:56;;;;;;;5.27;2.50;;;;;;;16.97;88.36;100507.41;5020299;28;20509;-59
2022/07/11 00:50:28;;;;;;;7.23;2.30;;;;;;;17.06;87.85;100496.47;5024149;28;20284;-59
2022/07/11 00:52:59;;;;;;;3.30;2.27;;;;;;;17.32;86.96;100498.06;5039023;28;20728;-60
2022/07/11 00:55:33;;;;;;;6.77;2.20;;;;;;;17.43;86.60;100500.28;5038726;28;20296;-60
2022/07/11 00:58:05;;;;;;;3.97;2.17;;;;;;;17.52;85.82;100499.91;5038891;28;20295;-60
2022/07/11 01:00:36;;;;;;;4.13;2.27;;;;;;;17.50;84.94;100507.06;5038764;28;20272;-59
2022/07/11 01:03:06;;;;;;;3.67;2.47;;;;;;;17.34;85.46;100490.09;5039070;28;20268;-60
2022/07/11 01:05:37;;;;;;;5.73;2.33;;;;;;;17.49;85.16;100493.88;5034572;28;20302;-59
2022/07/11 01:08:08;;;;;;;6.53;2.40;;;;;;;17.54;85.54;100508.63;5022739;28;20284;-60
2022/07/11 01:10:39;;;;;;;11.53;2.50;;;;;;;17.63;84.82;100502.97;5024367;28;20295;-59
2022/07/11 01:13:11;;;;;;;6.80;1.90;;;;;;;17.63;84.43;100507.41;5023570;28;20372;-60
2022/07/11 01:15:42;;;;;;;4.13;2.20;;;;;;;17.75;83.97;100516.59;5022767;28;20326;-59
2022/07/11 01:18:13;;;;;;;5.07;2.13;;;;;;;17.82;83.81;100503.09;5023821;28;20336;-60
2022/07/11 01:20:43;;;;;;;3.20;2.13;;;;;;;17.69;83.25;100481.56;5023156;28;20281;-59
2022/07/11 01:23:16;;;;;;;6.50;2.40;;;;;;;17.91;83.39;100491.25;5023800;28;20730;-59
2022/07/11 01:25:46;;;;;;;5.70;2.10;;;;;;;18.11;82.94;100515.03;5023350;28;20308;-60
2022/07/11 01:28:17;;;;;;;4.47;2.10;;;;;;;18.04;82.51;100503.00;5023973;28;20292;-60
2022/07/11 01:30:47;;;;;;;5.53;2.13;;;;;;;18.11;82.44;100520.31;5023756;28;20291;-60
2022/07/11 01:33:18;;;;;;;4.40;2.10;;;;;;;18.10;82.33;100497.47;5024560;28;20281;-60
2022/07/11 01:35:49;;;;;;;5.33;2.30;;;;;;;18.44;83.40;100510.97;5024770;28;20301;-59
2022/07/11 01:38:21;;;;;;;2.97;1.97;;;;;;;18.71;80.37;100514.16;5024139;28;20293;-59
2022/07/11 01:40:51;;;;;;;3.87;2.57;;;;;;;18.66;80.44;100508.22;5024591;28;20283;-59
2022/07/11 01:43:22;;;;;;;5.00;2.00;;;;;;;18.74;79.82;100504.25;5023301;28;20493;-59
2022/07/11 01:45:53;;;;;;;5.23;2.60;;;;;;;18.64;80.24;100481.81;5022979;28;20285;-60
2022/07/11 01:48:24;;;;;;;5.37;2.53;;;;;;;18.96;79.95;100509.44;5024406;28;20288;-59
2022/07/11 01:50:56;;;;;;;6.23;2.73;;;;;;;18.95;79.67;100507.75;5024285;28;20291;-59
2022/07/11 01:53:28;;;;;;;5.30;2.33;;;;;;;19.18;79.56;100513.72;5024191;28;20588;-60
2022/07/11 01:55:59;;;;;;;4.03;2.20;;;;;;;19.25;78.44;100499.25;5024827;28;20303;-60
2022/07/11 01:58:48;;;;;;;5.10;2.50;;;;;;;19.26;78.33;100506.25;5028216;28;20294;-59
2022/07/11 02:01:18;;;;;;;3.63;2.40;;;;;;;19.17;78.45;100496.13;5028318;28;20299;-59
2022/07/11 02:03:49;;;;;;;6.40;2.40;;;;;;;18.94;78.59;100490.13;5028201;28;20295;-60
2022/07/11 02:06:20;;;;;;;6.73;2.37;;;;;;;18.83;78.94;100497.72;5025737;28;20303;-59
2022/07/11 02:08:52;;;;;;;4.27;2.43;;;;;;;18.81;79.40;100512.81;5028235;28;20289;-60
2022/07/11 02:11:23;;;;;;;3.47;2.47;;;;;;;18.86;79.24;100497.56;5028277;28;20383;-59
2022/07/11 02:13:54;;;;;;;4.93;3.07;;;;;;;19.10;79.67;100500.00;5025121;28;20363;-60
2022/07/11 02:16:25;;;;;;;6.73;2.53;;;;;;;19.13;77.71;100478.66;5024199;28;20304;-60
2022/07/11 02:18:55;;;;;;;5.43;2.50;;;;;;;19.07;77.96;100510.72;5027928;28;20358;-59
2022/07/11 02:21:26;;;;;;;4.83;2.53;;;;;;;19.04;78.36;100489.69;5027508;28;20557;-58
2022/07/11 02:23:58;;;;;;;6.07;2.40;;;;;;;19.37;78.87;100500.47;5027316;28;20320;-58
2022/07/11 02:26:29;;;;;;;6.23;2.30;;;;;;;19.28;77.17;100499.09;5027747;28;20356;-58
2022/07/11 02:29:00;;;;;;;4.23;2.60;;;;;;;19.25;78.42;100483.38;5027419;28;20489;-58
2022/07/11 02:31:30;;;;;;;6.83;2.40;;;;;;;19.45;77.49;100494.78;5026367;28;20296;-57
2022/07/11 02:34:01;;;;;;;3.07;1.90;;;;;;;19.53;76.41;100488.16;5027734;28;20870;-57
2022/07/11 02:36:32;;;;;;;4.17;2.17;;;;;;;19.53;77.17;100497.91;5027603;28;20312;-58
2022/07/11 02:39:04;;;;;;;8.97;2.57;;;;;;;19.39;76.97;100499.47;5027884;28;20351;-58
2022/07/11 02:41:35;;;;;;;5.57;2.27;;;;;;;19.03;78.61;100466.81;5027363;28;20368;-57
2022/07/11 02:44:07;;;;;;;3.90;2.20;;;;;;;19.34;77.80;100493.50;5027360;28;20355;-59
2022/07/11 02:46:37;;;;;;;6.77;2.30;;;;;;;19.33;78.09;100475.91;5027348;28;20567;-58
2022/07/11 02:49:08;;;;;;;4.80;2.00;;;;;;;19.57;77.76;100500.34;5027422;28;20285;-58
2022/07/11 02:51:39;;;;;;;4.17;1.77;;;;;;;19.82;77.08;100489.38;5027243;28;20320;-58
2022/07/11 02:54:11;;;;;;;5.30;2.17;;;;;;;20.19;77.38;100490.13;5027088;28;20367;-59
2022/07/11 02:56:42;;;;;;;2.13;1.93;;;;;;;20.08;75.90;100495.13;5026837;28;20311;-58
2022/07/11 02:59:12;;;;;;;4.83;2.07;;;;;;;19.93;76.04;100477.34;5027057;28;20363;-58
2022/07/11 03:01:43;;;;;;;2.27;1.70;;;;;;;19.78;76.58;100466.59;5027267;28;20355;-58
2022/07/11 03:04:14;;;;;;;4.03;2.10;;;;;;;19.61;77.01;100454.16;5027308;28;20419;-58
2022/07/11 03:06:45;;;;;;;2.90;2.13;;;;;;;19.82;77.20;100468.16;5026104;28;20291;-58
2022/07/11 03:09:17;;;;;;;3.13;2.00;;;;;;;20.10;76.93;100498.56;5026608;28;20289;-58
2022/07/11 03:11:50;;;;;;;5.13;2.60;;;;;;;19.94;75.86;100487.00;5026601;28;20373;-58
2022/07/11 03:14:20;;;;;;;2.97;2.10;;;;;;;19.82;77.42;100477.91;5026659;28;20295;-57
2022/07/11 03:16:51;;;;;;;6.60;2.73;;;;;;;20.00;77.79;100486.72;5026510;28;20887;-60
2022/07/11 03:19:22;;;;;;;2.77;2.03;;;;;;;20.19;79.01;100476.84;5027399;28;20334;-62
2022/07/11 03:21:53;;;;;;;4.43;2.20;;;;;;;20.09;76.83;100464.97;5026628;28;20281;-61
2022/07/11 03:24:25;;;;;;;4.00;1.93;;;;;;;20.10;77.53;100466.72;5026375;28;20295;-60
2022/07/11 03:26:55;;;;;;;4.93;2.07;;;;;;;20.17;78.45;100462.81;5026594;28;20289;-60
2022/07/11 03:29:26;;;;;;;2.43;2.00;;;;;;;20.45;76.43;100469.28;5026481;28;20514;-60
2022/07/11 03:31:57;;;;;;;3.17;2.10;;;;;;;20.29;75.42;100428.59;5026619;28;20281;-59
2022/07/11 03:34:28;;;;;;;2.60;2.23;;;;;;;20.46;75.80;100468.34;5026786;28;20291;-60
2022/07/11 03:36:58;;;;;;;3.10;2.03;;;;;;;20.33;76.81;100454.03;5025230;28;20635;-60
2022/07/11 03:39:31;;;;;;;4.57;2.70;;;;;;;20.22;77.22;100433.38;5026522;28;20460;-60
2022/07/11 03:42:01;;;;;;;7.33;2.40;;;;;;;20.41;76.64;100449.16;5026564;28;20284;-59
2022/07/11 03:44:32;;;;;;;6.17;2.50;;;;;;;20.51;76.25;100445.06;5026503;28;20288;-59
2022/07/11 03:47:03;;;;;;;3.70;2.40;;;;;;;20.72;74.87;100442.19;5026129;28;20481;-60
2022/07/11 03:49:33;;;;;;;6.77;2.67;;;;;;;20.66;76.07;100443.38;5026032;28;20565;-59
2022/07/11 03:52:04;;;;;;;9.63;2.90;;;;;;;20.44;74.56;100417.13;5026256;28;20356;-59
2022/07/11 03:54:36;;;;;;;6.03;3.03;;;;;;;20.59;74.19;100440.22;5026074;28;20570;-59
2022/07/11 03:57:07;;;;;;;5.73;2.70;;;;;;;19.97;74.35;100391.41;5025913;28;20300;-60
2022/07/11 03:59:38;;;;;;;7.13;2.67;;;;;;;19.82;76.29;100388.63;5025562;28;20741;-59
2022/07/11 04:02:08;;;;;;;3.37;2.43;;;;;;;20.20;76.23;100438.75;5025355;28;20484;-60
2022/07/11 04:04:39;;;;;;;5.80;2.70;;;;;;;20.31;77.25;100437.31;5025768;28;20296;-60
2022/07/11 04:07:09;;;;;;;4.80;2.70;;;;;;;20.37;76.50;100442.31;5026030;28;20280;-60
2022/07/11 04:09:42;;;;;;;6.33;2.83;;;;;;;20.40;76.25;100448.31;5025408;28;20276;-59
2022/07/11 04:12:12;;;;;;;5.70;3.20;;;;;;;20.43;75.36;100447.28;5025511;28;20285;-60
2022/07/11 04:14:43;;;;;;;6.77;2.50;;;;;;;20.60;76.61;100449.91;5025429;28;20347;-59
2022/07/11 04:17:13;;;;;;;4.90;2.40;;;;;;;20.63;75.76;100449.72;5025180;28;20312;-60
2022/07/11 04:19:44;;;;;;;6.33;2.60;;;;;;;20.47;74.18;100446.19;5024931;28;20291;-60
2022/07/11 04:22:15;;;;;;;5.93;2.60;;;;;;;20.44;75.04;100449.84;5025368;28;20288;-60
2022/07/11 04:24:48;;;;;;;10.80;3.30;;;;;;;20.51;75.35;100458.31;5023506;28;20310;-60
2022/07/11 04:27:18;;;;;;;4.97;2.73;;;;;;;20.43;75.14;100458.75;5025330;28;20346;-59
2022/07/11 04:29:51;;;;;;;4.07;2.53;;;;;;;20.21;74.73;100403.31;5025040;28;20919;-61
2022/07/11 04:32:22;;;;;;;5.33;2.70;;;;;;;20.56;74.61;100453.66;5025513;28;20349;-60
2022/07/11 04:34:52;;;;;;;5.83;3.07;;;;;;;20.66;75.83;100444.22;5024749;28;20292;-59
2022/07/11 04:37:23;;;;;;;6.97;2.63;;;;;;;20.50;74.86;100442.50;5025327;28;20399;-59
2022/07/11 04:39:55;;;;;;;8.03;2.63;;;;;;;20.32;74.50;100446.97;5024431;28;20311;-60
2022/07/11 04:42:26;;;;;;;5.77;3.03;;;;;;;20.07;75.31;100450.97;5024682;28;20293;-60
2022/07/11 04:44:56;;;;;;;3.63;2.80;;;;;;;20.33;76.15;100451.38;5023784;28;20823;-61
2022/07/11 04:47:27;;;;;;;6.73;3.23;;;;;;;20.41;75.45;100454.47;5024583;28;20288;-60
2022/07/11 04:49:58;;;;;;;4.20;2.77;;;;;;;20.44;75.67;100438.34;5021214;28;20426;-60
2022/07/11 04:52:28;;;;;;;9.30;3.50;;;;;;;20.62;75.78;100458.63;5023870;28;21116;-59
2022/07/11 04:55:01;;;;;;;3.03;2.60;;;;;;;20.59;74.55;100453.50;5024577;28;20284;-62
2022/07/11 04:57:31;;;;;;;3.87;2.50;;;;;;;20.46;74.03;100439.13;5024647;28;20288;-60
2022/07/11 05:00:03;;;;;;;2.83;2.33;;;;;;;20.33;74.44;100449.56;5024523;28;20291;-60
2022/07/11 05:02:33;;;;;;;5.40;3.00;;;;;;;20.51;75.73;100445.06;5023630;28;20663;-59
2022/07/11 05:05:04;;;;;;;3.20;2.70;;;;;;;20.84;73.76;100441.50;5024741;28;20289;-62
2022/07/11 05:07:35;;;;;;;13.40;2.93;;;;;;;20.83;73.46;100451.25;5024548;28;20277;-60
2022/07/11 05:10:08;;;;;;;10.80;3.50;;;;;;;20.59;72.84;100437.56;5024753;28;20276;-61
2022/07/11 05:12:39;;;;;;;6.73;2.73;;;;;;;20.85;74.00;100432.59;5024909;28;20302;-60
2022/07/11 05:15:10;;;;;;;7.13;3.57;;;;;;;20.66;71.79;100396.44;5022964;28;20318;-59
2022/07/11 05:17:41;;;;;;;3.97;2.80;;;;;;;21.09;72.26;100459.56;5022990;28;20299;-60
2022/07/11 05:20:15;;;;;;;10.70;2.80;;;;;;;21.08;71.04;100455.19;5024620;28;20284;-60
2022/07/11 05:22:46;;;;;;;5.43;2.90;;;;;;;21.04;70.94;100454.53;5024758;28;20327;-60
2022/07/11 05:25:18;;;;;;;7.03;2.90;;;;;;;20.57;72.24;100422.69;5024543;28;20284;-60
2022/07/11 05:27:49;;;;;;;3.83;2.57;;;;;;;20.53;72.48;100456.44;5024588;28;20284;-60
2022/07/11 05:30:20;;;;;;;12.30;2.70;;;;;;;20.44;72.56;100444.56;5024460;28;20280;-59
2022/07/11 05:32:50;;;;;;;15.50;4.37;;;;;;;20.60;74.09;100449.91;5028388;28;20323;-59
2022/07/11 05:35:21;;;;;;;9.70;2.80;;;;;;;20.82;73.63;100443.41;5028475;28;20561;-60
2022/07/11 05:37:52;;;;;;;4.70;2.73;;;;;;;20.65;73.82;100437.22;5028551;28;20304;-60
2022/07/11 05:40:24;;;;;;;5.97;3.77;;;;;;;20.29;73.29;100391.44;5027783;28;20284;-60
2022/07/11 05:42:55;;;;;;;11.70;3.47;;;;;;;20.28;73.12;100429.53;5026376;28;20407;-61
2022/07/11 05:45:25;;;;;;;5.37;3.77;;;;;;;20.20;74.32;100456.47;5028426;28;20296;-57
2022/07/11 05:47:56;;;;;;;5.23;3.17;;;;;;;20.01;74.79;100451.28;5028047;28;20283;-60
2022/07/11 05:50:27;;;;;;;9.67;3.80;;;;;;;19.66;76.52;100448.63;5028494;28;20276;-60
2022/07/11 05:52:58;;;;;;;6.00;4.10;;;;;;;19.51;77.13;100452.06;5027994;28;20299;-60
2022/07/11 05:55:31;;;;;;;10.00;4.30;;;;;;;19.35;77.30;100451.97;5027885;28;20620;-59
2022/07/11 05:58:02;;;;;;;4.37;3.60;;;;;;;19.20;77.90;100464.19;5028333;28;20300;-60
2022/07/11 06:00:33;;;;;;;8.87;4.27;;;;;;;19.08;78.74;100448.91;5027658;28;20299;-60
2022/07/11 06:03:03;;;;;;;8.93;3.93;;;;;;;19.08;79.09;100449.75;5028220;28;20631;-60
2022/07/11 06:05:34;;;;;;;16.37;4.80;;;;;;;19.08;79.10;100459.50;5027944;28;20285;-60
2022/07/11 06:10:54;;;;;;;11.03;4.67;;;;;;;19.14;79.51;100459.19;5028131;28;20348;-58
2022/07/11 06:13:25;;;;;;;12.73;4.20;;;;;;;19.25;79.18;100446.28;5027598;28;20294;-58
2022/07/11 06:15:56;;;;;;;5.43;3.80;;;;;;;19.37;77.68;100450.97;5027577;28;20311;-59
2022/07/11 06:18:27;;;;;;;5.57;3.87;;;;;;;19.14;77.70;100453.88;5027390;28;20356;-58
2022/07/11 06:20:57;;;;;;;6.03;3.80;;;;;;;19.13;79.81;100444.22;5027533;28;20285;-59
2022/07/11 06:23:28;;;;;;;5.20;3.23;;;;;;;19.16;77.97;100404.34;5025900;28;20742;-59
2022/07/11 06:26:01;;;;;;;9.30;3.67;;;;;;;19.56;77.24;100439.44;5026517;28;20280;-59
2022/07/11 06:28:31;;;;;;;15.77;3.77;;;;;;;19.56;77.13;100450.03;5026377;28;21076;-59
2022/07/11 06:31:03;;;;;;;5.77;3.43;;;;;;;19.47;76.90;100413.38;5026540;28;20343;-59
2022/07/11 06:33:34;;;;;;;4.67;3.40;;;;;;;19.60;77.58;100435.69;5026817;28;20285;-59
2022/07/11 06:36:05;;;;;;;4.60;3.13;;;;;;;19.67;76.15;100431.84;5025871;28;20288;-60
2022/07/11 06:38:36;;;;;;;6.83;3.10;;;;;;;19.76;75.15;100425.19;5026444;28;20461;-59
2022/07/11 06:41:09;;;;;;;2.97;2.57;;;;;;;19.63;75.57;100440.84;5027143;28;20460;-59
2022/07/11 06:43:39;;;;;;;9.20;3.10;;;;;;;19.40;76.63;100445.50;5026487;28;20303;-58
2022/07/11 06:46:10;;;;;;;8.80;3.60;;;;;;;19.09;78.05;100447.94;5025832;28;20306;-60
2022/07/11 06:48:41;;;;;;;8.33;3.00;;;;;;;18.95;78.27;100449.50;5026231;28;20284;-60
2022/07/11 06:51:12;;;;;;;4.17;3.30;;;;;;;18.96;79.37;100456.50;4977726;28;20295;-59
2022/07/11 06:53:42;;;;;;;7.13;3.00;;;;;;;19.12;78.03;100459.28;5029463;28;20280;-59
2022/07/11 06:56:15;;;;;;;7.60;2.70;;;;;;;19.34;76.86;100455.53;5022866;28;20303;-61
2022/07/11 06:58:46;;;;;;;6.90;2.50;;;;;;;19.50;76.85;100466.25;5025464;28;20332;-60
2022/07/11 07:01:16;;;;;;;8.57;2.90;;;;;;;19.42;76.76;100468.41;5026434;28;20284;-61
2022/07/11 07:03:48;;;;;;;10.23;2.97;;;;;;;19.21;76.97;100460.59;5026257;28;20307;-60
2022/07/11 07:06:19;;;;;;;8.57;2.80;;;;;;;18.41;78.88;100363.81;5026237;28;20355;-61
2022/07/11 07:08:49;;;;;;;9.90;2.70;;;;;;;18.70;79.89;100449.78;5026110;28;20292;-61
2022/07/11 07:11:22;;;;;;;7.17;2.70;;;;;;;18.66;80.19;100447.34;5026359;28;20272;-60
2022/07/11 07:13:52;;;;;;;24.80;3.50;;;;;;;18.43;79.76;100449.25;5026664;28;20289;-60
2022/07/11 07:16:23;;;;;;;8.23;2.50;;;;;;;18.20;80.66;100449.47;5026340;28;20273;-59
2022/07/11 07:18:54;;;;;;;7.20;3.40;;;;;;;18.11;81.32;100456.84;5026529;28;20328;-60
2022/07/11 07:21:25;;;;;;;10.77;3.67;;;;;;;17.99;81.38;100462.69;5026353;28;20284;-59
2022/07/11 07:23:56;;;;;;;24.17;5.17;;;;;;;17.85;82.58;100455.38;5026319;28;20839;-59
2022/07/11 07:26:28;;;;;;;25.17;5.87;;;;;;;17.82;83.04;100463.44;5026251;28;20295;-59
2022/07/11 07:28:59;;;;;;;5.00;3.20;;;;;;;17.68;83.64;100463.13;5026378;28;21057;-58
2022/07/11 07:31:29;;;;;;;5.47;3.67;;;;;;;17.51;84.13;100466.47;5026491;28;20289;-58
2022/07/11 07:34:00;;;;;;;8.80;3.50;;;;;;;17.32;84.97;100470.81;5026159;28;20288;-58
2022/07/11 07:36:30;;;;;;;8.70;4.00;;;;;;;17.25;85.23;100459.66;5026338;28;20303;-58
2022/07/11 07:39:01;;;;;;;19.83;6.03;;;;;;;17.22;85.53;100460.63;5026122;28;20308;-59
2022/07/11 07:41:33;;;;;;;10.20;3.73;;;;;;;17.19;85.58;100455.47;5025838;28;20288;-58
2022/07/11 07:44:04;;;;;;;17.90;4.87;;;;;;;17.13;86.06;100458.38;5026165;28;20348;-58
2022/07/11 07:46:35;;;;;;;19.43;5.43;;;;;;;17.03;86.11;100451.72;5025856;28;20304;-59
2022/07/11 07:49:05;;;;;;;7.20;3.40;;;;;;;17.01;86.58;100424.53;5026548;28;20336;-59
2022/07/11 07:51:36;;;;;;;24.33;5.80;;;;;;;16.89;86.83;100443.50;5026303;28;20284;-59
2022/07/11 07:54:07;;;;;;;10.13;4.00;;;;;;;16.84;87.35;100442.81;5025629;28;20301;-59
2022/07/11 07:56:39;;;;;;;8.23;3.90;;;;;;;16.81;87.48;100439.38;5025768;28;20308;-59
2022/07/11 07:59:09;;;;;;;16.57;4.97;;;;;;;16.74;87.72;100448.41;5025982;28;20357;-59
2022/07/11 08:01:41;;;;;;;28.07;5.70;;;;;;;16.73;87.71;100449.34;5025618;28;20347;-58
2022/07/11 08:04:12;;;;;;;13.47;4.67;;;;;;;16.66;87.64;100454.94;5024916;28;20289;-59
2022/07/11 08:06:43;;;;;;;4.87;3.80;;;;;;;16.46;87.99;100463.59;5025198;28;20850;-59
2022/07/11 08:09:13;;;;;;;9.37;4.77;;;;;;;16.19;89.44;100471.59;5025330;28;20299;-58
2022/07/11 08:11:52;;;;;;;8.20;3.87;;;;;;;16.18;89.80;100480.44;5025712;28;20741;-59
2022/07/11 08:14:23;;;;;;;6.00;4.00;;;;;;;16.20;89.90;100481.25;5023106;28;20464;-59
2022/07/11 08:16:54;;;;;;;9.53;4.47;;;;;;;16.21;89.68;100493.50;5024816;28;20273;-58
2022/07/11 08:19:27;;;;;;;9.60;3.50;;;;;;;16.19;90.13;100487.41;5025581;28;20549;-58
2022/07/11 08:21:58;;;;;;;15.67;4.23;;;;;;;16.18;89.95;100486.56;5025210;28;20288;-58
2022/07/11 08:24:29;;;;;;;7.77;3.70;;;;;;;16.20;89.88;100494.44;5023277;28;20291;-59
2022/07/11 08:27:01;;;;;;;13.10;4.10;;;;;;;16.11;89.92;100482.41;5020882;28;20292;-59
2022/07/11 08:29:51;;;;;;;9.53;3.50;;;;;;;16.15;90.08;100491.94;5025062;28;20581;-58
2022/07/11 08:32:22;;;;;;;8.90;3.70;;;;;;;16.16;90.16;100498.06;5024853;28;20351;-59
2022/07/11 08:34:53;;;;;;;11.20;4.03;;;;;;;16.06;90.36;100496.69;5024971;28;20696;-59
2022/07/11 08:37:23;;;;;;;5.53;4.03;;;;;;;15.99;90.82;100495.19;5025364;28;20307;-57
2022/07/11 08:39:54;;;;;;;8.17;4.07;;;;;;;15.94;91.26;100493.56;5025071;28;20327;-57
2022/07/11 08:42:31;;;;;;;4.90;3.87;;;;;;;15.81;91.29;100487.00;5023240;28;20514;-57
2022/07/11 08:45:02;;;;;;;7.70;4.40;;;;;;;15.84;91.63;100481.63;5024785;28;20290;-57
2022/07/11 08:47:34;;;;;;;9.83;4.43;;;;;;;15.89;92.07;100489.34;5024912;28;20288;-58
2022/07/11 08:50:05;;;;;;;11.60;4.07;;;;;;;15.93;91.82;100483.09;5024357;28;20284;-57
2022/07/11 08:52:35;;;;;;;7.90;4.10;;;;;;;15.77;91.93;100480.09;5023313;28;20508;-57
2022/07/11 08:55:08;;;;;;;11.30;5.23;;;;;;;15.38;92.18;100412.06;5025320;28;20291;-57
2022/07/11 08:57:40;;;;;;;6.77;4.40;;;;;;;15.73;92.45;100483.78;5022367;28;20304;-57
2022/07/11 09:00:12;;;;;;;7.87;4.30;;;;;;;15.76;92.98;100478.38;5022192;28;20524;-56
2022/07/11 09:02:44;;;;;;;9.03;4.43;;;;;;;15.72;92.49;100476.75;5025166;28;20288;-57
2022/07/11 09:05:16;;;;;;;4.80;4.00;;;;;;;15.62;92.67;100477.97;5024421;28;20577;-57
2022/07/11 09:07:47;;;;;;;14.23;5.00;;;;;;;15.52;93.15;100483.56;5025208;28;20280;-57
2022/07/11 09:10:19;;;;;;;7.33;3.80;;;;;;;15.39;93.68;100476.94;5024858;28;20364;-57
2022/07/11 09:13:06;;;;;;;5.60;3.50;;;;;;;15.33;94.09;100477.16;5025106;28;20486;-57
2022/07/11 09:15:39;;;;;;;8.37;4.10;;;;;;;15.29;94.37;100478.16;5021482;28;20288;-57
2022/07/11 09:18:33;;;;;;;5.33;3.90;;;;;;;15.25;94.61;100473.91;5024742;28;20615;-56
2022/07/11 09:26:42;;;;;;;4.47;3.77;;;;;;;15.16;95.26;100487.38;5025463;28;19927;-56
2022/07/11 09:29:16;;;;;;;9.23;4.40;;;;;;;15.08;95.55;100475.31;5024623;28;20283;-56
2022/07/11 09:31:47;;;;;;;13.73;4.40;;;;;;;14.92;95.61;100442.47;5024512;28;20360;-57
2022/07/11 09:41:53;;;;;;;4.67;4.10;;;;;;;14.88;95.85;100461.94;5023627;28;20271;-57
2022/07/11 09:44:28;;;;;;;4.80;4.27;;;;;;;14.97;96.03;100482.66;5024635;28;20323;-58
2022/07/11 09:47:18;;;;;;;10.27;4.97;;;;;;;14.76;96.29;100441.25;4983252;28;20392;-57
2022/07/11 09:49:50;;;;;;;13.00;5.10;;;;;;;14.98;96.33;100476.50;4983284;28;20281;-58
2022/07/11 09:52:21;;;;;;;14.23;5.13;;;;;;;15.00;96.64;100477.34;4982506;28;20511;-58
2022/07/11 09:54:56;;;;;;;7.93;5.00;;;;;;;14.99;96.24;100480.84;4983390;28;20357;-58
2022/07/11 09:57:33;;;;;;;8.93;4.60;;;;;;;14.94;96.32;100477.50;4982990;28;20329;-57
2022/07/11 10:00:08;;;;;;;6.40;4.83;;;;;;;14.98;96.35;100499.34;4983072;28;20811;-57
2022/07/11 10:02:39;;;;;;;9.13;5.27;;;;;;;14.93;96.26;100485.47;4982930;28;20312;-57
2022/07/11 10:05:10;;;;;;;7.57;5.27;;;;;;;14.86;96.49;100500.56;4982531;28;20296;-57
2022/07/11 10:07:41;;;;;;;6.10;5.47;;;;;;;14.83;96.89;100505.94;4982927;28;20621;-57
2022/07/11 10:10:12;;;;;;;9.87;6.03;;;;;;;14.84;96.97;100510.28;4982753;28;20535;-58
2022/07/11 10:12:44;;;;;;;12.17;5.50;;;;;;;14.62;97.27;100462.69;5015410;28;20630;-57
2022/07/11 10:15:22;;;;;;;9.33;5.43;;;;;;;14.81;96.86;100502.47;5024159;28;20429;-57
2022/07/11 10:18:02;;;;;;;9.13;6.40;;;;;;;14.73;97.07;100500.09;5024993;28;20494;-57
2022/07/11 10:20:35;;;;;;;11.07;6.00;;;;;;;14.79;97.17;100514.81;5024846;28;20317;-57
2022/07/11 10:23:16;;;;;;;10.40;6.00;;;;;;;14.77;97.29;100512.22;5025268;28;20481;-57
2022/07/11 10:25:53;;;;;;;11.17;6.17;;;;;;;14.76;97.27;100504.38;5023378;28;20551;-57
2022/07/11 10:28:32;;;;;;;10.80;6.33;;;;;;;14.72;97.41;100508.00;5026172;28;20306;-57
2022/07/11 10:31:04;;;;;;;11.48;6.28;;;;;;;14.71;97.47;100501.88;5027190;28;20509;-58
2022/07/11 10:33:35;;;;;;;8.00;6.70;;;;;;;14.65;97.70;100508.19;5027176;28;20065;-57
2022/07/11 10:36:06;;;;;;;9.23;6.70;;;;;;;14.65;97.96;100513.47;5026919;28;20307;-58
2022/07/11 10:38:36;;;;;;;13.83;5.77;;;;;;;14.66;97.95;100515.16;5026532;28;20285;-58
2022/07/11 10:41:22;;;;;;;14.63;6.30;;;;;;;14.65;98.36;100516.09;5027030;28;20308;-58
2022/07/11 10:43:53;;;;;;;11.47;6.23;;;;;;;14.63;98.47;100520.53;5026948;28;20277;-58
2022/07/11 10:46:28;;;;;;;7.67;6.47;;;;;;;14.67;98.72;100537.91;5027334;28;20573;-58
2022/07/11 10:49:04;;;;;;;8.80;6.03;;;;;;;14.60;98.80;100546.91;5026806;28;20323;-58
2022/07/11 10:51:47;;;;;;;13.00;6.67;;;;;;;14.64;98.99;100534.53;5026981;28;20309;-58
2022/07/11 10:55:00;;;;;;;18.93;5.80;;;;;;;14.41;99.12;100509.72;5026492;28;20595;-58
2022/07/11 10:57:41;;;;;;;6.80;6.10;;;;;;;14.61;99.28;100548.63;5026555;28;20450;-58
2022/07/11 11:00:14;;;;;;;7.80;6.20;;;;;;;14.60;99.33;100546.91;5026770;28;20481;-58
2022/07/11 11:03:05;;;;;;;8.70;5.43;;;;;;;14.59;99.39;100555.69;5026087;28;20284;-58
2022/07/11 11:05:44;;;;;;;8.00;6.10;;;;;;;14.41;99.62;100524.63;5026971;28;20347;-58
2022/07/11 11:08:42;;;;;;;7.23;5.47;;;;;;;14.63;99.52;100573.13;5026275;28;20689;-58
2022/07/11 11:11:37;;;;;;;7.13;5.25;;;;;;;14.57;99.38;100565.38;5026159;28;20581;-58
2022/07/11 11:14:21;;;;;;;6.67;6.07;;;;;;;14.60;99.89;100573.22;5017225;28;20053;-58
2022/07/11 11:16:52;;;;;;;9.57;5.90;;;;;;;14.55;99.75;100564.59;5027223;28;20277;-59
2022/07/11 11:19:58;;;;;;;9.00;6.33;;;;;;;14.58;99.85;100561.88;5026780;28;20293;-58
2022/07/11 11:22:30;;;;;;;7.17;5.43;;;;;;;14.57;99.78;100568.03;5026152;28;20391;-57
2022/07/11 11:25:02;;;;;;;7.90;5.83;;;;;;;14.55;100.00;100564.59;5025819;28;20289;-58
2022/07/11 11:28:05;;;;;;;9.07;6.10;;;;;;;14.52;100.00;100569.03;5025896;28;20293;-57
2022/07/11 11:30:37;;;;;;;7.77;5.60;;;;;;;14.51;100.00;100568.16;5025866;28;20281;-57
2022/07/11 11:33:17;;;;;;;8.93;6.20;;;;;;;14.34;100.00;100557.25;5025869;28;20359;-57
2022/07/11 11:35:47;;;;;;;;;;;;;;;14.48;100.00;100570.00;5026416;28;20351;-57
2022/07/11 11:38:19;;;;;;;11.27;5.33;;;;;;;14.47;100.00;100577.03;5025834;28;19984;-57
2022/07/11 11:40:51;;;;;;;7.30;6.13;;;;;;;14.46;100.00;100570.06;5023754;28;20635;-58
2022/07/11 11:43:27;;;;;;;12.52;5.88;;;;;;;14.46;100.00;100576.19;5023879;28;20579;-57
2022/07/11 11:45:58;;;;;;;28.35;5.78;;;;;;;14.45;100.00;100569.22;5023372;28;20084;-57
2022/07/11 11:48:30;;;;;;;16.57;7.07;;;;;;;14.44;100.00;100577.13;5024574;28;20124;-58
2022/07/11 11:51:04;;;;;;;23.23;6.73;;;;;;;14.11;100.00;100527.19;5022863;28;20962;-57
2022/07/11 11:53:40;;;;;;;26.10;7.13;;;;;;;14.23;100.00;100563.66;5023950;28;20314;-58
2022/07/11 11:56:17;;;;;;;17.43;6.90;;;;;;;14.35;100.00;100580.00;5023924;28;20289;-57
2022/07/11 11:58:48;;;;;;;12.73;6.80;;;;;;;14.37;100.00;100578.19;5025668;28;20360;-57
2022/07/11 12:01:23;;;;;;;14.93;8.07;;;;;;;14.31;100.00;100570.50;5025745;28;20339;-57
2022/07/11 12:03:55;;;;;;;29.77;7.33;;;;;;;14.40;100.00;100580.72;5026166;28;20349;-57
2022/07/11 12:06:27;;;;;;;20.63;6.83;;;;;;;14.27;100.00;100563.56;5025883;28;20354;-57